sensor_id;sensor_type;location;lat;lon;timestamp;P1;durP1;ratioP1;P2;durP2;ratioP2
30301;SDS011;17111;52.130;5.028;2023-02-18T00:00:26;31.63;;;18.17;;
30301;SDS011;17111;52.130;5.028;2023-02-18T00:02:53;33.47;;;19.75;;
30301;SDS011;17111;52.130;5.028;2023-02-18T00:05:21;34.58;;;18.85;;
30301;SDS011;17111;52.130;5.028;2023-02-18T00:07:48;34.25;;;18.30;;
30301;SDS011;17111;52.130;5.028;2023-02-18T00:10:15;33.00;;;19.10;;
30301;SDS011;17111;52.130;5.028;2023-02-18T00:12:42;32.05;;;17.70;;
30301;SDS011;17111;52.130;5.028;2023-02-18T00:15:09;29.23;;;17.55;;
30301;SDS011;17111;52.130;5.028;2023-02-18T00:17:36;33.75;;;18.60;;
30301;SDS011;17111;52.130;5.028;2023-02-18T00:20:04;31.48;;;17.65;;
30301;SDS011;17111;52.130;5.028;2023-02-18T00:22:32;31.58;;;17.38;;
30301;SDS011;17111;52.130;5.028;2023-02-18T00:24:58;35.35;;;17.42;;
30301;SDS011;17111;52.130;5.028;2023-02-18T00:27:25;30.52;;;16.80;;
30301;SDS011;17111;52.130;5.028;2023-02-18T00:29:51;29.45;;;15.73;;
30301;SDS011;17111;52.130;5.028;2023-02-18T00:32:18;27.95;;;15.70;;
30301;SDS011;17111;52.130;5.028;2023-02-18T00:34:44;36.10;;;18.23;;
30301;SDS011;17111;52.130;5.028;2023-02-18T00:37:11;32.42;;;18.27;;
30301;SDS011;17111;52.130;5.028;2023-02-18T00:39:37;28.38;;;16.13;;
30301;SDS011;17111;52.130;5.028;2023-02-18T00:42:04;28.00;;;16.38;;
30301;SDS011;17111;52.130;5.028;2023-02-18T00:44:30;30.13;;;16.08;;
30301;SDS011;17111;52.130;5.028;2023-02-18T00:46:57;31.17;;;17.25;;
30301;SDS011;17111;52.130;5.028;2023-02-18T00:49:24;27.33;;;15.18;;
30301;SDS011;17111;52.130;5.028;2023-02-18T00:51:50;27.13;;;15.70;;
30301;SDS011;17111;52.130;5.028;2023-02-18T00:54:17;24.65;;;15.30;;
30301;SDS011;17111;52.130;5.028;2023-02-18T00:56:43;30.13;;;16.73;;
30301;SDS011;17111;52.130;5.028;2023-02-18T00:59:10;28.15;;;15.25;;
30301;SDS011;17111;52.130;5.028;2023-02-18T01:01:36;26.85;;;15.35;;
30301;SDS011;17111;52.130;5.028;2023-02-18T01:04:03;26.85;;;14.93;;
30301;SDS011;17111;52.130;5.028;2023-02-18T01:06:30;28.60;;;15.15;;
30301;SDS011;17111;52.130;5.028;2023-02-18T01:08:57;29.10;;;15.98;;
30301;SDS011;17111;52.130;5.028;2023-02-18T01:11:23;30.33;;;15.70;;
30301;SDS011;17111;52.130;5.028;2023-02-18T01:13:50;24.67;;;14.25;;
30301;SDS011;17111;52.130;5.028;2023-02-18T01:16:17;30.20;;;15.68;;
30301;SDS011;17111;52.130;5.028;2023-02-18T01:18:44;26.58;;;15.43;;
30301;SDS011;17111;52.130;5.028;2023-02-18T01:21:11;29.63;;;15.93;;
30301;SDS011;17111;52.130;5.028;2023-02-18T01:23:38;26.25;;;14.43;;
30301;SDS011;17111;52.130;5.028;2023-02-18T01:26:05;22.40;;;13.90;;
30301;SDS011;17111;52.130;5.028;2023-02-18T01:28:33;25.95;;;14.45;;
30301;SDS011;17111;52.130;5.028;2023-02-18T01:31:03;24.17;;;13.57;;
30301;SDS011;17111;52.130;5.028;2023-02-18T01:33:32;25.23;;;15.48;;
30301;SDS011;17111;52.130;5.028;2023-02-18T01:35:59;26.60;;;15.23;;
30301;SDS011;17111;52.130;5.028;2023-02-18T01:38:26;25.98;;;14.85;;
30301;SDS011;17111;52.130;5.028;2023-02-18T01:40:52;26.05;;;14.73;;
30301;SDS011;17111;52.130;5.028;2023-02-18T01:43:19;23.98;;;14.60;;
30301;SDS011;17111;52.130;5.028;2023-02-18T01:49:02;25.10;;;14.13;;
30301;SDS011;17111;52.130;5.028;2023-02-18T01:54:02;23.33;;;13.55;;
30301;SDS011;17111;52.130;5.028;2023-02-18T01:57:17;23.95;;;13.48;;
30301;SDS011;17111;52.130;5.028;2023-02-18T01:59:48;25.08;;;13.38;;
30301;SDS011;17111;52.130;5.028;2023-02-18T02:02:22;25.30;;;14.07;;
30301;SDS011;17111;52.130;5.028;2023-02-18T02:04:51;24.38;;;14.63;;
30301;SDS011;17111;52.130;5.028;2023-02-18T02:07:18;24.25;;;13.20;;
30301;SDS011;17111;52.130;5.028;2023-02-18T02:09:47;22.05;;;13.35;;
30301;SDS011;17111;52.130;5.028;2023-02-18T02:18:13;24.77;;;13.38;;
30301;SDS011;17111;52.130;5.028;2023-02-18T02:35:00;25.05;;;13.98;;
30301;SDS011;17111;52.130;5.028;2023-02-18T02:37:41;24.10;;;13.98;;
30301;SDS011;17111;52.130;5.028;2023-02-18T02:48:38;26.33;;;15.15;;
30301;SDS011;17111;52.130;5.028;2023-02-18T02:51:23;25.33;;;14.02;;
30301;SDS011;17111;52.130;5.028;2023-02-18T02:53:53;22.92;;;13.60;;
30301;SDS011;17111;52.130;5.028;2023-02-18T02:56:21;25.33;;;13.98;;
30301;SDS011;17111;52.130;5.028;2023-02-18T02:59:00;22.63;;;14.27;;
30301;SDS011;17111;52.130;5.028;2023-02-18T03:07:01;24.88;;;14.32;;
30301;SDS011;17111;52.130;5.028;2023-02-18T03:09:43;23.83;;;13.45;;
30301;SDS011;17111;52.130;5.028;2023-02-18T03:17:48;24.15;;;13.07;;
30301;SDS011;17111;52.130;5.028;2023-02-18T03:20:31;22.85;;;13.05;;
30301;SDS011;17111;52.130;5.028;2023-02-18T03:23:03;24.20;;;13.10;;
30301;SDS011;17111;52.130;5.028;2023-02-18T03:25:34;22.45;;;13.20;;
30301;SDS011;17111;52.130;5.028;2023-02-18T03:28:10;23.73;;;14.05;;
30301;SDS011;17111;52.130;5.028;2023-02-18T03:31:03;20.85;;;12.30;;
30301;SDS011;17111;52.130;5.028;2023-02-18T03:33:32;24.83;;;13.73;;
30301;SDS011;17111;52.130;5.028;2023-02-18T03:36:10;18.02;;;12.05;;
30301;SDS011;17111;52.130;5.028;2023-02-18T03:38:39;21.58;;;12.15;;
30301;SDS011;17111;52.130;5.028;2023-02-18T03:41:10;20.05;;;11.85;;
30301;SDS011;17111;52.130;5.028;2023-02-18T03:43:39;19.33;;;12.15;;
30301;SDS011;17111;52.130;5.028;2023-02-18T03:46:06;20.75;;;12.07;;
30301;SDS011;17111;52.130;5.028;2023-02-18T03:48:33;18.75;;;11.13;;
30301;SDS011;17111;52.130;5.028;2023-02-18T03:51:00;17.98;;;11.25;;
30301;SDS011;17111;52.130;5.028;2023-02-18T03:53:26;17.20;;;11.20;;
30301;SDS011;17111;52.130;5.028;2023-02-18T03:55:53;17.25;;;10.32;;
30301;SDS011;17111;52.130;5.028;2023-02-18T03:58:19;17.35;;;11.05;;
30301;SDS011;17111;52.130;5.028;2023-02-18T04:00:46;16.83;;;10.20;;
30301;SDS011;17111;52.130;5.028;2023-02-18T04:03:12;16.02;;;10.48;;
30301;SDS011;17111;52.130;5.028;2023-02-18T04:05:39;14.18;;;8.48;;
30301;SDS011;17111;52.130;5.028;2023-02-18T04:08:05;15.35;;;9.70;;
30301;SDS011;17111;52.130;5.028;2023-02-18T04:10:32;15.05;;;9.88;;
30301;SDS011;17111;52.130;5.028;2023-02-18T04:12:58;14.70;;;9.15;;
30301;SDS011;17111;52.130;5.028;2023-02-18T04:15:25;14.15;;;9.38;;
30301;SDS011;17111;52.130;5.028;2023-02-18T04:17:51;12.23;;;8.05;;
30301;SDS011;17111;52.130;5.028;2023-02-18T04:20:18;14.20;;;9.27;;
30301;SDS011;17111;52.130;5.028;2023-02-18T04:22:45;13.60;;;8.40;;
30301;SDS011;17111;52.130;5.028;2023-02-18T04:25:11;13.27;;;8.38;;
30301;SDS011;17111;52.130;5.028;2023-02-18T04:27:38;13.95;;;8.10;;
30301;SDS011;17111;52.130;5.028;2023-02-18T04:30:04;12.75;;;7.90;;
30301;SDS011;17111;52.130;5.028;2023-02-18T04:32:32;14.63;;;8.13;;
30301;SDS011;17111;52.130;5.028;2023-02-18T04:34:58;11.90;;;7.85;;
30301;SDS011;17111;52.130;5.028;2023-02-18T04:37:25;13.48;;;7.75;;
30301;SDS011;17111;52.130;5.028;2023-02-18T04:39:51;11.30;;;7.10;;
30301;SDS011;17111;52.130;5.028;2023-02-18T04:42:18;11.02;;;7.13;;
30301;SDS011;17111;52.130;5.028;2023-02-18T04:44:44;11.25;;;7.13;;
30301;SDS011;17111;52.130;5.028;2023-02-18T04:47:12;9.93;;;6.50;;
30301;SDS011;17111;52.130;5.028;2023-02-18T04:49:39;9.90;;;6.28;;
30301;SDS011;17111;52.130;5.028;2023-02-18T04:52:06;9.73;;;6.55;;
30301;SDS011;17111;52.130;5.028;2023-02-18T04:54:32;10.43;;;6.70;;
30301;SDS011;17111;52.130;5.028;2023-02-18T04:56:59;9.90;;;6.57;;
30301;SDS011;17111;52.130;5.028;2023-02-18T04:59:25;9.35;;;6.45;;
30301;SDS011;17111;52.130;5.028;2023-02-18T05:01:52;9.40;;;5.97;;
30301;SDS011;17111;52.130;5.028;2023-02-18T05:04:18;10.02;;;6.32;;
30301;SDS011;17111;52.130;5.028;2023-02-18T05:06:45;9.68;;;6.00;;
30301;SDS011;17111;52.130;5.028;2023-02-18T05:09:12;8.40;;;5.97;;
30301;SDS011;17111;52.130;5.028;2023-02-18T05:11:39;8.93;;;5.97;;
30301;SDS011;17111;52.130;5.028;2023-02-18T05:14:05;7.82;;;5.43;;
30301;SDS011;17111;52.130;5.028;2023-02-18T05:16:32;9.48;;;6.18;;
30301;SDS011;17111;52.130;5.028;2023-02-18T05:18:58;9.25;;;5.82;;
30301;SDS011;17111;52.130;5.028;2023-02-18T05:21:25;10.18;;;5.20;;
30301;SDS011;17111;52.130;5.028;2023-02-18T05:23:52;8.77;;;5.57;;
30301;SDS011;17111;52.130;5.028;2023-02-18T05:26:18;7.30;;;5.25;;
30301;SDS011;17111;52.130;5.028;2023-02-18T05:28:45;7.65;;;5.57;;
30301;SDS011;17111;52.130;5.028;2023-02-18T05:31:11;8.27;;;5.28;;
30301;SDS011;17111;52.130;5.028;2023-02-18T05:33:38;7.47;;;5.22;;
30301;SDS011;17111;52.130;5.028;2023-02-18T05:36:04;8.57;;;5.20;;
30301;SDS011;17111;52.130;5.028;2023-02-18T05:38:32;6.60;;;4.93;;
30301;SDS011;17111;52.130;5.028;2023-02-18T05:40:58;6.63;;;4.80;;
30301;SDS011;17111;52.130;5.028;2023-02-18T05:43:25;6.63;;;4.85;;
30301;SDS011;17111;52.130;5.028;2023-02-18T05:45:51;6.78;;;4.82;;
30301;SDS011;17111;52.130;5.028;2023-02-18T05:48:18;8.05;;;4.93;;
30301;SDS011;17111;52.130;5.028;2023-02-18T05:50:44;7.88;;;5.45;;
30301;SDS011;17111;52.130;5.028;2023-02-18T05:53:11;9.35;;;4.90;;
30301;SDS011;17111;52.130;5.028;2023-02-18T05:55:37;8.77;;;5.05;;
30301;SDS011;17111;52.130;5.028;2023-02-18T05:58:05;7.10;;;4.70;;
30301;SDS011;17111;52.130;5.028;2023-02-18T06:00:31;6.60;;;4.85;;
30301;SDS011;17111;52.130;5.028;2023-02-18T06:02:58;6.63;;;4.60;;
30301;SDS011;17111;52.130;5.028;2023-02-18T06:05:25;7.53;;;4.90;;
30301;SDS011;17111;52.130;5.028;2023-02-18T06:07:51;7.35;;;4.75;;
30301;SDS011;17111;52.130;5.028;2023-02-18T06:10:21;6.47;;;4.60;;
30301;SDS011;17111;52.130;5.028;2023-02-18T06:12:48;6.18;;;4.07;;
30301;SDS011;17111;52.130;5.028;2023-02-18T06:15:14;7.32;;;4.40;;
30301;SDS011;17111;52.130;5.028;2023-02-18T06:17:41;5.82;;;4.38;;
30301;SDS011;17111;52.130;5.028;2023-02-18T06:20:08;6.32;;;4.28;;
30301;SDS011;17111;52.130;5.028;2023-02-18T06:22:34;7.35;;;4.63;;
30301;SDS011;17111;52.130;5.028;2023-02-18T06:25:01;7.93;;;5.00;;
30301;SDS011;17111;52.130;5.028;2023-02-18T06:27:27;6.30;;;4.10;;
30301;SDS011;17111;52.130;5.028;2023-02-18T06:29:54;6.05;;;3.90;;
30301;SDS011;17111;52.130;5.028;2023-02-18T06:32:20;6.55;;;3.95;;
30301;SDS011;17111;52.130;5.028;2023-02-18T06:34:47;6.38;;;4.47;;
30301;SDS011;17111;52.130;5.028;2023-02-18T06:37:14;6.68;;;3.92;;
30301;SDS011;17111;52.130;5.028;2023-02-18T06:39:40;6.10;;;3.80;;
30301;SDS011;17111;52.130;5.028;2023-02-18T06:42:07;5.82;;;3.97;;
30301;SDS011;17111;52.130;5.028;2023-02-18T06:44:33;4.85;;;3.40;;
30301;SDS011;17111;52.130;5.028;2023-02-18T06:47:03;6.47;;;3.95;;
30301;SDS011;17111;52.130;5.028;2023-02-18T06:49:29;6.75;;;3.97;;
30301;SDS011;17111;52.130;5.028;2023-02-18T06:51:56;5.85;;;3.63;;
30301;SDS011;17111;52.130;5.028;2023-02-18T06:54:22;5.10;;;3.55;;
30301;SDS011;17111;52.130;5.028;2023-02-18T06:56:50;6.25;;;4.20;;
30301;SDS011;17111;52.130;5.028;2023-02-18T06:59:16;6.72;;;4.35;;
30301;SDS011;17111;52.130;5.028;2023-02-18T07:01:43;7.18;;;4.57;;
30301;SDS011;17111;52.130;5.028;2023-02-18T07:04:09;6.50;;;4.28;;
30301;SDS011;17111;52.130;5.028;2023-02-18T07:06:36;7.60;;;4.95;;
30301;SDS011;17111;52.130;5.028;2023-02-18T07:09:02;8.07;;;5.80;;
30301;SDS011;17111;52.130;5.028;2023-02-18T07:11:29;10.75;;;6.13;;
30301;SDS011;17111;52.130;5.028;2023-02-18T07:13:56;10.85;;;6.22;;
30301;SDS011;17111;52.130;5.028;2023-02-18T07:16:23;11.32;;;6.70;;
30301;SDS011;17111;52.130;5.028;2023-02-18T07:18:49;11.77;;;7.32;;
30301;SDS011;17111;52.130;5.028;2023-02-18T07:21:16;16.83;;;9.13;;
30301;SDS011;17111;52.130;5.028;2023-02-18T07:23:42;18.05;;;10.50;;
30301;SDS011;17111;52.130;5.028;2023-02-18T07:26:10;18.20;;;11.10;;
30301;SDS011;17111;52.130;5.028;2023-02-18T07:28:38;20.95;;;12.65;;
30301;SDS011;17111;52.130;5.028;2023-02-18T07:31:05;23.58;;;12.52;;
30301;SDS011;17111;52.130;5.028;2023-02-18T07:33:33;21.10;;;12.38;;
30301;SDS011;17111;52.130;5.028;2023-02-18T07:36:00;22.88;;;12.45;;
30301;SDS011;17111;52.130;5.028;2023-02-18T07:38:27;23.33;;;13.32;;
30301;SDS011;17111;52.130;5.028;2023-02-18T07:40:55;24.77;;;13.63;;
30301;SDS011;17111;52.130;5.028;2023-02-18T07:43:22;23.90;;;14.35;;
30301;SDS011;17111;52.130;5.028;2023-02-18T07:45:49;22.25;;;13.60;;
30301;SDS011;17111;52.130;5.028;2023-02-18T07:48:16;25.10;;;15.32;;
30301;SDS011;17111;52.130;5.028;2023-02-18T07:50:43;23.83;;;14.27;;
30301;SDS011;17111;52.130;5.028;2023-02-18T07:53:11;28.60;;;15.63;;
30301;SDS011;17111;52.130;5.028;2023-02-18T07:55:39;23.80;;;14.52;;
30301;SDS011;17111;52.130;5.028;2023-02-18T08:00:42;26.75;;;15.13;;
30301;SDS011;17111;52.130;5.028;2023-02-18T08:03:09;26.00;;;15.20;;
30301;SDS011;17111;52.130;5.028;2023-02-18T08:05:36;30.35;;;16.00;;
30301;SDS011;17111;52.130;5.028;2023-02-18T08:08:02;30.50;;;17.35;;
30301;SDS011;17111;52.130;5.028;2023-02-18T08:10:29;29.52;;;17.02;;
30301;SDS011;17111;52.130;5.028;2023-02-18T08:12:56;29.85;;;17.80;;
30301;SDS011;17111;52.130;5.028;2023-02-18T08:15:22;31.45;;;18.52;;
30301;SDS011;17111;52.130;5.028;2023-02-18T08:17:49;32.15;;;18.80;;
30301;SDS011;17111;52.130;5.028;2023-02-18T08:20:15;33.95;;;19.17;;
30301;SDS011;17111;52.130;5.028;2023-02-18T08:22:42;37.97;;;20.25;;
30301;SDS011;17111;52.130;5.028;2023-02-18T08:25:09;37.63;;;20.40;;
30301;SDS011;17111;52.130;5.028;2023-02-18T08:27:52;39.20;;;21.00;;
30301;SDS011;17111;52.130;5.028;2023-02-18T08:30:19;38.83;;;21.05;;
30301;SDS011;17111;52.130;5.028;2023-02-18T08:32:46;36.75;;;22.05;;
30301;SDS011;17111;52.130;5.028;2023-02-18T08:35:12;47.92;;;26.25;;
30301;SDS011;17111;52.130;5.028;2023-02-18T08:37:39;49.20;;;26.95;;
30301;SDS011;17111;52.130;5.028;2023-02-18T08:40:19;58.72;;;30.23;;
30301;SDS011;17111;52.130;5.028;2023-02-18T08:42:46;72.32;;;35.83;;
30301;SDS011;17111;52.130;5.028;2023-02-18T08:45:12;76.47;;;37.10;;
30301;SDS011;17111;52.130;5.028;2023-02-18T08:47:39;77.68;;;40.45;;
30301;SDS011;17111;52.130;5.028;2023-02-18T08:50:26;84.35;;;41.63;;
30301;SDS011;17111;52.130;5.028;2023-02-18T08:52:53;87.85;;;44.00;;
30301;SDS011;17111;52.130;5.028;2023-02-18T08:55:20;89.30;;;43.50;;
30301;SDS011;17111;52.130;5.028;2023-02-18T08:57:47;93.75;;;45.65;;
30301;SDS011;17111;52.130;5.028;2023-02-18T09:00:14;94.22;;;43.95;;
30301;SDS011;17111;52.130;5.028;2023-02-18T09:02:42;95.43;;;45.42;;
30301;SDS011;17111;52.130;5.028;2023-02-18T09:05:09;86.63;;;43.95;;
30301;SDS011;17111;52.130;5.028;2023-02-18T09:07:37;84.47;;;43.83;;
30301;SDS011;17111;52.130;5.028;2023-02-18T09:10:04;83.63;;;41.40;;
30301;SDS011;17111;52.130;5.028;2023-02-18T09:12:32;87.32;;;41.33;;
30301;SDS011;17111;52.130;5.028;2023-02-18T09:14:58;77.95;;;39.63;;
30301;SDS011;17111;52.130;5.028;2023-02-18T09:17:26;86.68;;;38.67;;
30301;SDS011;17111;52.130;5.028;2023-02-18T09:19:53;77.90;;;38.95;;
30301;SDS011;17111;52.130;5.028;2023-02-18T09:22:19;72.43;;;36.45;;
30301;SDS011;17111;52.130;5.028;2023-02-18T09:24:46;75.03;;;37.90;;
30301;SDS011;17111;52.130;5.028;2023-02-18T09:27:12;70.70;;;34.72;;
30301;SDS011;17111;52.130;5.028;2023-02-18T09:29:40;65.55;;;34.15;;
30301;SDS011;17111;52.130;5.028;2023-02-18T09:32:07;64.72;;;33.17;;
30301;SDS011;17111;52.130;5.028;2023-02-18T09:34:35;68.18;;;33.80;;
30301;SDS011;17111;52.130;5.028;2023-02-18T09:37:01;62.88;;;32.47;;
30301;SDS011;17111;52.130;5.028;2023-02-18T09:39:28;62.38;;;30.50;;
30301;SDS011;17111;52.130;5.028;2023-02-18T09:41:56;64.63;;;31.02;;
30301;SDS011;17111;52.130;5.028;2023-02-18T09:47:12;64.25;;;29.42;;
30301;SDS011;17111;52.130;5.028;2023-02-18T09:49:40;62.47;;;29.55;;
30301;SDS011;17111;52.130;5.028;2023-02-18T09:52:13;56.03;;;30.15;;
30301;SDS011;17111;52.130;5.028;2023-02-18T09:54:40;65.35;;;32.70;;
30301;SDS011;17111;52.130;5.028;2023-02-18T09:57:09;60.58;;;31.85;;
30301;SDS011;17111;52.130;5.028;2023-02-18T09:59:47;69.13;;;34.50;;
30301;SDS011;17111;52.130;5.028;2023-02-18T10:02:22;79.82;;;39.00;;
30301;SDS011;17111;52.130;5.028;2023-02-18T10:04:49;92.15;;;41.03;;
30301;SDS011;17111;52.130;5.028;2023-02-18T10:07:24;84.53;;;41.85;;
30301;SDS011;17111;52.130;5.028;2023-02-18T10:09:54;83.53;;;39.97;;
30301;SDS011;17111;52.130;5.028;2023-02-18T10:12:23;85.75;;;39.15;;
30301;SDS011;17111;52.130;5.028;2023-02-18T10:14:53;83.97;;;36.65;;
30301;SDS011;17111;52.130;5.028;2023-02-18T10:17:24;76.68;;;35.08;;
30301;SDS011;17111;52.130;5.028;2023-02-18T10:19:53;69.43;;;31.90;;
30301;SDS011;17111;52.130;5.028;2023-02-18T10:22:21;79.53;;;31.38;;
30301;SDS011;17111;52.130;5.028;2023-02-18T10:24:57;83.97;;;32.30;;
30301;SDS011;17111;52.130;5.028;2023-02-18T10:29:54;72.93;;;27.95;;
30301;SDS011;17111;52.130;5.028;2023-02-18T10:32:35;65.25;;;27.83;;
30301;SDS011;17111;52.130;5.028;2023-02-18T10:35:14;68.97;;;26.58;;
30301;SDS011;17111;52.130;5.028;2023-02-18T10:45:47;61.70;;;21.55;;
30301;SDS011;17111;52.130;5.028;2023-02-18T10:51:15;53.83;;;21.55;;
30301;SDS011;17111;52.130;5.028;2023-02-18T10:53:47;53.28;;;25.08;;
30301;SDS011;17111;52.130;5.028;2023-02-18T10:59:40;69.90;;;29.85;;
30301;SDS011;17111;52.130;5.028;2023-02-18T11:01:53;58.70;;;28.30;;
30301;SDS011;17111;52.130;5.028;2023-02-18T11:04:25;55.92;;;27.75;;
30301;SDS011;17111;52.130;5.028;2023-02-18T11:07:20;57.10;;;28.05;;
30301;SDS011;17111;52.130;5.028;2023-02-18T11:09:54;57.95;;;27.08;;
30301;SDS011;17111;52.130;5.028;2023-02-18T11:17:42;53.17;;;26.95;;
30301;SDS011;17111;52.130;5.028;2023-02-18T11:20:22;55.38;;;27.00;;
30301;SDS011;17111;52.130;5.028;2023-02-18T11:22:59;50.15;;;27.17;;
30301;SDS011;17111;52.130;5.028;2023-02-18T11:25:41;53.65;;;28.38;;
30301;SDS011;17111;52.130;5.028;2023-02-18T11:30:47;64.05;;;33.08;;
30301;SDS011;17111;52.130;5.028;2023-02-18T11:35:52;69.18;;;36.63;;
30301;SDS011;17111;52.130;5.028;2023-02-18T11:41:05;74.32;;;38.20;;
30301;SDS011;17111;52.130;5.028;2023-02-18T11:43:34;69.93;;;37.15;;
30301;SDS011;17111;52.130;5.028;2023-02-18T11:46:08;74.95;;;38.47;;
30301;SDS011;17111;52.130;5.028;2023-02-18T11:48:36;72.03;;;37.40;;
30301;SDS011;17111;52.130;5.028;2023-02-18T11:51:03;67.85;;;35.58;;
30301;SDS011;17111;52.130;5.028;2023-02-18T11:53:33;65.57;;;35.53;;
30301;SDS011;17111;52.130;5.028;2023-02-18T11:56:05;69.93;;;35.65;;
30301;SDS011;17111;52.130;5.028;2023-02-18T11:58:44;70.38;;;34.65;;
30301;SDS011;17111;52.130;5.028;2023-02-18T12:01:14;66.03;;;31.58;;
30301;SDS011;17111;52.130;5.028;2023-02-18T12:04:10;66.50;;;34.45;;
30301;SDS011;17111;52.130;5.028;2023-02-18T12:07:46;68.65;;;35.03;;
30301;SDS011;17111;52.130;5.028;2023-02-18T12:09:53;77.93;;;39.20;;
30301;SDS011;17111;52.130;5.028;2023-02-18T12:12:27;81.53;;;39.45;;
30301;SDS011;17111;52.130;5.028;2023-02-18T12:14:58;76.82;;;38.85;;
30301;SDS011;17111;52.130;5.028;2023-02-18T12:17:33;84.68;;;39.60;;
30301;SDS011;17111;52.130;5.028;2023-02-18T12:25:54;75.40;;;38.22;;
30301;SDS011;17111;52.130;5.028;2023-02-18T12:28:48;87.57;;;38.38;;
30301;SDS011;17111;52.130;5.028;2023-02-18T12:36:44;68.22;;;34.55;;
30301;SDS011;17111;52.130;5.028;2023-02-18T12:39:36;65.63;;;31.75;;
30301;SDS011;17111;52.130;5.028;2023-02-18T12:54:23;48.97;;;24.70;;
30301;SDS011;17111;52.130;5.028;2023-02-18T12:56:58;59.85;;;30.48;;
30301;SDS011;17111;52.130;5.028;2023-02-18T13:10:39;62.83;;;32.25;;
30301;SDS011;17111;52.130;5.028;2023-02-18T13:13:24;59.13;;;31.00;;
30301;SDS011;17111;52.130;5.028;2023-02-18T13:16:08;59.30;;;29.77;;
30301;SDS011;17111;52.130;5.028;2023-02-18T13:19:01;53.05;;;29.15;;
30301;SDS011;17111;52.130;5.028;2023-02-18T13:24:02;48.40;;;26.30;;
30301;SDS011;17111;52.130;5.028;2023-02-18T13:26:32;50.97;;;27.02;;
30301;SDS011;17111;52.130;5.028;2023-02-18T13:31:45;45.95;;;23.90;;
30301;SDS011;17111;52.130;5.028;2023-02-18T13:39:46;37.50;;;20.75;;
30301;SDS011;17111;52.130;5.028;2023-02-18T13:50:13;39.03;;;20.52;;
30301;SDS011;17111;52.130;5.028;2023-02-18T13:52:51;42.88;;;22.23;;
30301;SDS011;17111;52.130;5.028;2023-02-18T13:55:34;40.40;;;22.10;;
30301;SDS011;17111;52.130;5.028;2023-02-18T13:58:17;46.90;;;22.88;;
30301;SDS011;17111;52.130;5.028;2023-02-18T14:00:57;37.45;;;21.48;;
30301;SDS011;17111;52.130;5.028;2023-02-18T14:05:58;39.63;;;20.58;;
30301;SDS011;17111;52.130;5.028;2023-02-18T14:08:35;42.67;;;19.25;;
30301;SDS011;17111;52.130;5.028;2023-02-18T14:17:11;36.80;;;17.63;;
30301;SDS011;17111;52.130;5.028;2023-02-18T14:19:38;35.72;;;16.83;;
30301;SDS011;17111;52.130;5.028;2023-02-18T14:27:42;40.03;;;16.15;;
30301;SDS011;17111;52.130;5.028;2023-02-18T14:33:11;43.17;;;15.93;;
30301;SDS011;17111;52.130;5.028;2023-02-18T14:35:47;27.08;;;14.15;;
30301;SDS011;17111;52.130;5.028;2023-02-18T14:41:36;34.95;;;13.25;;
30301;SDS011;17111;52.130;5.028;2023-02-18T14:51:59;22.15;;;12.18;;
30301;SDS011;17111;52.130;5.028;2023-02-18T14:54:26;25.67;;;13.05;;
30301;SDS011;17111;52.130;5.028;2023-02-18T14:56:56;25.27;;;11.82;;
30301;SDS011;17111;52.130;5.028;2023-02-18T14:59:27;32.55;;;11.60;;
30301;SDS011;17111;52.130;5.028;2023-02-18T15:01:56;24.88;;;11.20;;
30301;SDS011;17111;52.130;5.028;2023-02-18T15:04:24;25.10;;;11.60;;
30301;SDS011;17111;52.130;5.028;2023-02-18T15:07:01;23.00;;;11.45;;
30301;SDS011;17111;52.130;5.028;2023-02-18T15:09:30;19.52;;;10.43;;
30301;SDS011;17111;52.130;5.028;2023-02-18T15:11:58;20.63;;;11.02;;
30301;SDS011;17111;52.130;5.028;2023-02-18T15:14:33;20.10;;;10.25;;
30301;SDS011;17111;52.130;5.028;2023-02-18T15:17:02;22.23;;;10.38;;
30301;SDS011;17111;52.130;5.028;2023-02-18T15:19:38;20.70;;;10.15;;
30301;SDS011;17111;52.130;5.028;2023-02-18T15:22:18;19.67;;;10.43;;
30301;SDS011;17111;52.130;5.028;2023-02-18T15:24:47;20.60;;;10.45;;
30301;SDS011;17111;52.130;5.028;2023-02-18T15:27:19;18.00;;;9.80;;
30301;SDS011;17111;52.130;5.028;2023-02-18T15:29:49;16.42;;;9.15;;
30301;SDS011;17111;52.130;5.028;2023-02-18T15:32:18;21.23;;;9.40;;
30301;SDS011;17111;52.130;5.028;2023-02-18T15:34:51;15.43;;;8.93;;
30301;SDS011;17111;52.130;5.028;2023-02-18T15:37:19;25.88;;;9.55;;
30301;SDS011;17111;52.130;5.028;2023-02-18T15:39:46;24.15;;;12.60;;
30301;SDS011;17111;52.130;5.028;2023-02-18T15:42:16;31.88;;;15.88;;
30301;SDS011;17111;52.130;5.028;2023-02-18T15:47:51;34.20;;;17.65;;
30301;SDS011;17111;52.130;5.028;2023-02-18T15:50:21;34.53;;;18.95;;
30301;SDS011;17111;52.130;5.028;2023-02-18T15:52:52;38.60;;;19.23;;
30301;SDS011;17111;52.130;5.028;2023-02-18T15:58:00;38.63;;;21.17;;
30301;SDS011;17111;52.130;5.028;2023-02-18T16:00:38;42.95;;;22.67;;
30301;SDS011;17111;52.130;5.028;2023-02-18T16:03:19;41.38;;;22.13;;
30301;SDS011;17111;52.130;5.028;2023-02-18T16:06:08;37.97;;;21.38;;
30301;SDS011;17111;52.130;5.028;2023-02-18T16:11:30;38.80;;;21.50;;
30301;SDS011;17111;52.130;5.028;2023-02-18T16:14:00;47.25;;;23.42;;
30301;SDS011;17111;52.130;5.028;2023-02-18T16:16:28;45.05;;;24.08;;
30301;SDS011;17111;52.130;5.028;2023-02-18T16:18:58;55.17;;;26.13;;
30301;SDS011;17111;52.130;5.028;2023-02-18T16:27:07;58.15;;;30.13;;
30301;SDS011;17111;52.130;5.028;2023-02-18T16:29:42;50.90;;;27.92;;
30301;SDS011;17111;52.130;5.028;2023-02-18T16:32:09;57.17;;;29.77;;
30301;SDS011;17111;52.130;5.028;2023-02-18T16:34:36;58.67;;;29.58;;
30301;SDS011;17111;52.130;5.028;2023-02-18T16:37:03;56.50;;;31.02;;
30301;SDS011;17111;52.130;5.028;2023-02-18T16:39:48;56.70;;;29.63;;
30301;SDS011;17111;52.130;5.028;2023-02-18T16:42:17;53.42;;;29.77;;
30301;SDS011;17111;52.130;5.028;2023-02-18T16:44:43;58.17;;;29.23;;
30301;SDS011;17111;52.130;5.028;2023-02-18T16:47:10;54.17;;;28.73;;
30301;SDS011;17111;52.130;5.028;2023-02-18T16:49:42;55.55;;;27.73;;
30301;SDS011;17111;52.130;5.028;2023-02-18T16:52:11;53.90;;;28.40;;
30301;SDS011;17111;52.130;5.028;2023-02-18T16:54:41;51.40;;;27.35;;
30301;SDS011;17111;52.130;5.028;2023-02-18T16:57:09;48.60;;;26.17;;
30301;SDS011;17111;52.130;5.028;2023-02-18T16:59:36;47.95;;;25.92;;
30301;SDS011;17111;52.130;5.028;2023-02-18T17:02:03;47.72;;;25.83;;
30301;SDS011;17111;52.130;5.028;2023-02-18T17:04:29;49.20;;;25.95;;
30301;SDS011;17111;52.130;5.028;2023-02-18T17:06:56;44.58;;;23.88;;
30301;SDS011;17111;52.130;5.028;2023-02-18T17:09:23;44.28;;;24.13;;
30301;SDS011;17111;52.130;5.028;2023-02-18T17:11:52;44.67;;;24.05;;
30301;SDS011;17111;52.130;5.028;2023-02-18T17:14:20;42.83;;;23.67;;
30301;SDS011;17111;52.130;5.028;2023-02-18T17:16:49;44.80;;;23.17;;
30301;SDS011;17111;52.130;5.028;2023-02-18T17:19:18;41.03;;;22.00;;
30301;SDS011;17111;52.130;5.028;2023-02-18T17:21:48;47.90;;;22.80;;
30301;SDS011;17111;52.130;5.028;2023-02-18T17:24:16;35.88;;;20.27;;
30301;SDS011;17111;52.130;5.028;2023-02-18T17:26:43;40.92;;;21.48;;
30301;SDS011;17111;52.130;5.028;2023-02-18T17:29:10;36.95;;;21.02;;
30301;SDS011;17111;52.130;5.028;2023-02-18T17:31:38;38.53;;;20.42;;
30301;SDS011;17111;52.130;5.028;2023-02-18T17:34:07;35.95;;;19.67;;
30301;SDS011;17111;52.130;5.028;2023-02-18T17:36:37;35.90;;;19.40;;